createdAt,value
2022-10-08T00:00:17.494Z,19.30
2022-10-08T00:02:48.139Z,20.17
2022-10-08T00:05:30.586Z,18.13
2022-10-08T00:08:04.391Z,23.55
2022-10-08T00:10:39.733Z,19.52
2022-10-08T00:13:12.167Z,22.65
2022-10-08T00:15:50.212Z,18.00
2022-10-08T00:18:19.743Z,17.48
2022-10-08T00:21:09.323Z,15.10
2022-10-08T00:23:48.154Z,18.90
2022-10-08T00:26:24.713Z,11.55
2022-10-08T00:28:56.197Z,11.68
2022-10-08T00:31:36.699Z,9.77
2022-10-08T00:34:06.991Z,11.13
2022-10-08T00:36:41.212Z,10.27
2022-10-08T00:39:17.771Z,9.63
2022-10-08T00:41:54.158Z,9.07
2022-10-08T00:44:58.732Z,9.38
2022-10-08T00:47:50.309Z,12.45
2022-10-08T00:50:25.177Z,10.45
2022-10-08T00:53:07.684Z,10.25
2022-10-08T00:55:44.106Z,11.23
2022-10-08T00:58:21.174Z,9.70
2022-10-08T01:00:55.461Z,13.60
2022-10-08T01:03:43.323Z,12.77
2022-10-08T01:06:32.972Z,11.82
2022-10-08T01:09:25.722Z,12.25
2022-10-08T01:12:12.694Z,10.05
2022-10-08T01:15:03.816Z,12.05
2022-10-08T01:17:57.934Z,13.10
2022-10-08T01:20:34.146Z,13.18
2022-10-08T01:23:38.724Z,11.88
2022-10-08T01:26:30.736Z,12.52
2022-10-08T01:29:32.042Z,10.95
2022-10-08T01:32:17.224Z,10.55
2022-10-08T01:34:49.716Z,9.07
2022-10-08T01:37:41.589Z,14.73
2022-10-08T01:40:23.001Z,11.75
2022-10-08T01:42:54.466Z,8.48
2022-10-08T01:45:34.664Z,10.18
2022-10-08T01:48:08.241Z,11.30
2022-10-08T01:50:45.189Z,15.40
2022-10-08T01:53:19.610Z,13.25
2022-10-08T01:55:54.869Z,13.18
2022-10-08T01:58:50.102Z,12.60
2022-10-08T02:01:44.286Z,12.02
2022-10-08T02:04:40.909Z,12.95
2022-10-08T02:07:14.973Z,15.38
2022-10-08T02:09:44.099Z,15.18
2022-10-08T02:12:11.945Z,16.50
2022-10-08T02:14:45.463Z,16.48
2022-10-08T02:17:39.893Z,18.13
2022-10-08T02:20:24.964Z,15.80
2022-10-08T02:23:17.877Z,18.42
2022-10-08T02:26:05.209Z,14.50
2022-10-08T02:28:52.087Z,15.65
2022-10-08T02:31:42.526Z,15.40
2022-10-08T02:34:25.466Z,13.52
2022-10-08T02:37:02.262Z,11.85
2022-10-08T02:39:34.459Z,14.05
2022-10-08T02:42:07.320Z,12.57
2022-10-08T02:44:55.175Z,15.32
2022-10-08T02:47:39.229Z,12.07
2022-10-08T02:50:17.067Z,20.20
2022-10-08T02:52:53.581Z,12.32
2022-10-08T02:56:00.848Z,12.07
2022-10-08T02:58:34.508Z,11.73
2022-10-08T03:01:14.638Z,10.60
2022-10-08T03:03:52.715Z,12.80
2022-10-08T03:06:21.140Z,13.57
2022-10-08T03:08:50.810Z,13.48
2022-10-08T03:11:25.022Z,14.73
2022-10-08T03:14:02.099Z,11.65
2022-10-08T03:16:38.764Z,12.00
2022-10-08T03:19:10.991Z,17.02
2022-10-08T03:21:48.422Z,13.13
2022-10-08T03:24:17.483Z,15.68
2022-10-08T03:26:48.751Z,12.90
2022-10-08T03:29:16.172Z,12.85
2022-10-08T03:31:42.781Z,11.30
2022-10-08T03:34:09.451Z,12.57
2022-10-08T03:36:36.163Z,11.55
2022-10-08T03:39:03.253Z,14.23
2022-10-08T03:41:31.476Z,11.40
2022-10-08T03:43:59.210Z,13.27
2022-10-08T03:46:25.893Z,12.02
2022-10-08T03:48:52.680Z,14.55
2022-10-08T03:51:20.917Z,10.80
2022-10-08T03:53:47.602Z,12.40
2022-10-08T03:56:17.020Z,15.75
2022-10-08T03:58:43.924Z,13.68
2022-10-08T04:01:16.686Z,11.43
2022-10-08T04:03:45.489Z,10.10
2022-10-08T04:06:12.683Z,12.05
2022-10-08T04:08:39.730Z,9.27
2022-10-08T04:11:14.902Z,12.30
2022-10-08T04:13:41.652Z,12.77
2022-10-08T04:16:12.342Z,12.35
2022-10-08T04:18:39.511Z,11.80
2022-10-08T04:21:09.325Z,13.07
2022-10-08T04:23:38.477Z,16.30
2022-10-08T04:26:06.592Z,20.20
2022-10-08T04:28:38.252Z,18.50
2022-10-08T04:31:08.490Z,18.83
2022-10-08T04:33:36.291Z,17.67
2022-10-08T04:36:11.358Z,16.80
2022-10-08T04:38:38.246Z,20.02
2022-10-08T04:41:24.604Z,12.85
2022-10-08T04:43:52.238Z,14.57
2022-10-08T04:46:21.047Z,11.02
2022-10-08T04:48:53.130Z,17.20
2022-10-08T04:51:21.011Z,16.98
2022-10-08T04:53:47.686Z,15.45
2022-10-08T04:56:16.976Z,15.65
2022-10-08T04:58:47.076Z,15.25
2022-10-08T05:01:18.192Z,14.75
2022-10-08T05:03:47.524Z,11.93
2022-10-08T05:06:15.697Z,15.18
2022-10-08T05:08:43.384Z,15.25
2022-10-08T05:11:10.450Z,18.08
2022-10-08T05:13:37.575Z,18.25
2022-10-08T05:16:12.874Z,22.30
2022-10-08T05:18:41.681Z,18.85
2022-10-08T05:21:14.172Z,22.63
2022-10-08T05:23:42.640Z,18.55
2022-10-08T05:26:17.606Z,18.15
2022-10-08T05:28:47.106Z,18.33
2022-10-08T05:31:15.020Z,22.95
2022-10-08T05:33:42.186Z,20.25
2022-10-08T05:36:15.354Z,22.67
2022-10-08T05:38:43.702Z,24.73
2022-10-08T05:41:14.343Z,27.88
2022-10-08T05:43:41.993Z,24.23
2022-10-08T05:46:09.107Z,24.90
2022-10-08T05:48:36.311Z,23.52
2022-10-08T05:51:07.850Z,23.95
2022-10-08T05:53:36.430Z,22.13
2022-10-08T05:56:05.032Z,24.90
2022-10-08T05:58:34.072Z,27.70
2022-10-08T06:01:02.634Z,22.98
2022-10-08T06:03:29.410Z,26.35
2022-10-08T06:06:03.120Z,22.65
2022-10-08T06:08:29.792Z,24.35
2022-10-08T06:10:56.733Z,29.27
2022-10-08T06:13:24.093Z,25.88
2022-10-08T06:16:03.419Z,27.25
2022-10-08T06:18:33.096Z,24.30
2022-10-08T06:21:04.473Z,25.88
2022-10-08T06:23:31.204Z,32.45
2022-10-08T06:26:01.975Z,43.30
2022-10-08T06:28:28.723Z,30.63
2022-10-08T06:31:00.676Z,37.83
2022-10-08T06:33:30.078Z,30.58
2022-10-08T06:36:15.781Z,43.10
2022-10-08T06:39:07.216Z,59.88
2022-10-08T06:41:37.722Z,58.88
2022-10-08T06:44:12.534Z,72.43
2022-10-08T06:46:45.512Z,79.60
2022-10-08T06:49:19.339Z,78.30
2022-10-08T06:51:52.116Z,83.45
2022-10-08T06:54:30.418Z,93.07
2022-10-08T06:57:06.509Z,84.38
2022-10-08T06:59:49.677Z,85.20
2022-10-08T07:02:17.555Z,81.80
2022-10-08T07:04:47.861Z,76.65
2022-10-08T07:07:20.499Z,88.47
2022-10-08T07:09:53.286Z,89.35
2022-10-08T07:12:23.826Z,77.70
2022-10-08T07:14:55.750Z,73.28
2022-10-08T07:17:29.579Z,75.15
2022-10-08T07:20:03.984Z,66.70
2022-10-08T07:22:34.529Z,59.85
2022-10-08T07:25:01.843Z,64.53
2022-10-08T07:27:47.645Z,62.42
2022-10-08T07:30:18.238Z,55.63
2022-10-08T07:32:55.380Z,58.63
2022-10-08T07:37:55.356Z,66.90
2022-10-08T07:40:29.718Z,63.58
2022-10-08T07:43:06.180Z,55.85
2022-10-08T07:45:36.348Z,58.28
2022-10-08T07:48:07.048Z,65.28
2022-10-08T07:50:37.046Z,57.58
2022-10-08T07:55:38.779Z,59.53
2022-10-08T07:58:14.472Z,54.20
2022-10-08T08:00:42.331Z,54.55
2022-10-08T08:03:20.870Z,57.97
2022-10-08T08:05:51.941Z,53.42
2022-10-08T08:08:29.349Z,62.47
2022-10-08T08:11:06.098Z,58.08
2022-10-08T08:13:37.458Z,57.03
2022-10-08T08:18:52.910Z,59.58
2022-10-08T08:21:27.016Z,58.00
2022-10-08T08:24:21.657Z,58.95
2022-10-08T08:26:58.408Z,51.97
2022-10-08T08:29:25.119Z,52.53
2022-10-08T08:31:52.616Z,45.90
2022-10-08T08:34:27.364Z,52.25
2022-10-08T08:37:06.860Z,45.40
2022-10-08T08:39:39.670Z,40.90
2022-10-08T08:42:42.288Z,47.58
2022-10-08T08:45:46.247Z,43.42
2022-10-08T08:48:35.910Z,38.88
2022-10-08T08:51:12.776Z,34.83
2022-10-08T08:53:51.039Z,35.25
2022-10-08T08:56:25.207Z,36.35
2022-10-08T09:01:45.986Z,33.75
2022-10-08T09:04:45.100Z,32.55
2022-10-08T09:07:25.481Z,33.85
2022-10-08T09:10:04.250Z,36.13
2022-10-08T09:12:43.147Z,37.20
2022-10-08T09:15:25.449Z,34.97
2022-10-08T09:17:55.875Z,36.75
2022-10-08T09:23:00.195Z,29.08
2022-10-08T09:25:33.922Z,33.10
2022-10-08T09:28:05.822Z,28.77
2022-10-08T09:30:43.996Z,33.08
2022-10-08T09:33:32.139Z,32.63
2022-10-08T09:36:02.297Z,32.08
2022-10-08T09:38:39.279Z,30.02
2022-10-08T09:41:18.587Z,27.20
2022-10-08T09:44:05.944Z,30.38
2022-10-08T09:46:33.981Z,31.08
2022-10-08T09:49:29.934Z,29.00
2022-10-08T09:52:06.490Z,27.73
2022-10-08T09:54:43.309Z,29.55
2022-10-08T09:57:18.409Z,30.83
2022-10-08T09:59:54.429Z,28.35
2022-10-08T10:02:34.400Z,30.98
2022-10-08T10:07:40.425Z,28.92
2022-10-08T10:10:34.275Z,26.92
2022-10-08T10:13:22.293Z,28.33
2022-10-08T10:16:13.501Z,27.65
2022-10-08T10:19:04.919Z,26.88
2022-10-08T10:21:40.238Z,26.08
2022-10-08T10:24:28.278Z,26.42
2022-10-08T10:27:00.953Z,24.67
2022-10-08T10:29:41.681Z,24.27
2022-10-08T10:32:23.868Z,25.25
2022-10-08T10:35:26.254Z,27.77
2022-10-08T10:38:28.937Z,28.38
2022-10-08T10:41:12.977Z,27.77
2022-10-08T10:43:57.536Z,27.20
2022-10-08T10:46:28.136Z,28.67
2022-10-08T10:48:57.235Z,27.10
2022-10-08T10:51:54.262Z,26.97
2022-10-08T10:54:56.901Z,26.20
2022-10-08T10:58:03.987Z,27.65
2022-10-08T11:00:50.624Z,24.13
2022-10-08T11:03:50.737Z,26.80
2022-10-08T11:06:56.168Z,22.30
2022-10-08T11:09:49.874Z,23.50
2022-10-08T11:13:09.674Z,24.33
2022-10-08T11:15:52.260Z,23.77
2022-10-08T11:18:42.444Z,22.15
2022-10-08T11:21:12.561Z,24.10
2022-10-08T11:23:58.538Z,26.75
2022-10-08T11:26:37.128Z,26.20
2022-10-08T11:29:36.942Z,26.13
2022-10-08T11:32:20.970Z,24.42
2022-10-08T11:35:01.655Z,26.27
2022-10-08T11:37:42.491Z,22.88
2022-10-08T11:40:57.351Z,21.50
2022-10-08T11:43:55.413Z,23.80
2022-10-08T11:46:39.213Z,23.20
2022-10-08T11:49:22.729Z,19.50
2022-10-08T11:51:55.959Z,20.55
2022-10-08T11:54:39.306Z,26.27
2022-10-08T12:00:20.898Z,22.15
2022-10-08T12:02:53.427Z,23.08
2022-10-08T12:05:25.175Z,24.30
2022-10-08T12:08:07.397Z,23.27
2022-10-08T12:10:40.841Z,24.52
2022-10-08T12:13:17.883Z,24.60
2022-10-08T12:15:45.565Z,20.60
2022-10-08T12:18:14.301Z,23.88
2022-10-08T12:20:44.722Z,21.63
2022-10-08T12:23:23.120Z,22.27
2022-10-08T12:26:00.815Z,19.77
2022-10-08T12:28:30.401Z,22.50
2022-10-08T12:30:59.417Z,21.58
2022-10-08T12:33:27.084Z,18.88
2022-10-08T12:36:07.003Z,23.00
2022-10-08T12:38:38.858Z,17.48
2022-10-08T12:41:26.118Z,22.95
2022-10-08T12:44:00.896Z,17.48
2022-10-08T12:46:41.050Z,19.38
2022-10-08T12:49:35.880Z,22.38
2022-10-08T12:52:18.777Z,20.67
2022-10-08T12:54:56.476Z,24.63
2022-10-08T12:57:37.760Z,22.90
2022-10-08T13:00:32.498Z,20.52
2022-10-08T13:03:16.763Z,21.17
2022-10-08T13:05:48.241Z,23.25
2022-10-08T13:08:38.960Z,21.33
2022-10-08T13:11:19.059Z,17.17
2022-10-08T13:13:51.300Z,20.30
2022-10-08T13:16:24.689Z,20.80
2022-10-08T13:18:58.968Z,16.55
2022-10-08T13:21:34.320Z,17.98
2022-10-08T13:24:22.801Z,15.52
2022-10-08T13:26:53.525Z,16.08
2022-10-08T13:29:26.469Z,23.33
2022-10-08T13:32:00.278Z,17.42
2022-10-08T13:34:42.753Z,15.35
2022-10-08T13:37:24.862Z,13.70
2022-10-08T13:39:57.574Z,13.18
2022-10-08T13:42:28.134Z,16.05
2022-10-08T13:44:56.800Z,14.52
2022-10-08T13:47:24.200Z,18.55
2022-10-08T13:50:00.739Z,16.20
2022-10-08T13:52:31.630Z,15.20
2022-10-08T13:55:30.638Z,16.70
2022-10-08T13:58:08.454Z,15.38
2022-10-08T14:00:37.594Z,13.57
2022-10-08T14:03:05.670Z,14.52
2022-10-08T14:05:41.571Z,16.35
2022-10-08T14:08:19.849Z,13.77
2022-10-08T14:10:53.528Z,13.68
2022-10-08T14:13:21.564Z,15.75
2022-10-08T14:15:48.318Z,15.18
2022-10-08T14:18:16.502Z,15.43
2022-10-08T14:20:45.984Z,13.88
2022-10-08T14:23:16.849Z,23.98
2022-10-08T14:25:47.666Z,15.23
2022-10-08T14:28:15.802Z,15.38
2022-10-08T14:30:46.827Z,15.77
2022-10-08T14:33:15.945Z,14.38
2022-10-08T14:35:46.323Z,15.70
2022-10-08T14:38:20.182Z,14.85
2022-10-08T14:40:48.379Z,11.40
2022-10-08T14:43:15.215Z,15.25
2022-10-08T14:45:41.940Z,13.25
2022-10-08T14:48:14.034Z,17.27
2022-10-08T14:50:45.244Z,18.13
2022-10-08T14:53:19.516Z,16.98
2022-10-08T14:56:11.072Z,16.58
2022-10-08T14:58:39.154Z,14.65
2022-10-08T15:01:09.961Z,16.30
2022-10-08T15:03:36.711Z,14.63
2022-10-08T15:06:03.487Z,17.30
2022-10-08T15:08:34.981Z,15.02
2022-10-08T15:11:04.092Z,15.05
2022-10-08T15:13:33.560Z,18.50
2022-10-08T15:16:00.341Z,17.55
2022-10-08T15:18:30.187Z,13.63
2022-10-08T15:20:59.787Z,12.90
2022-10-08T15:23:28.899Z,13.98
2022-10-08T15:25:58.016Z,14.80
2022-10-08T15:28:28.012Z,19.50
2022-10-08T15:31:15.441Z,14.25
2022-10-08T15:33:45.706Z,17.27
2022-10-08T15:36:21.038Z,16.02
2022-10-08T15:38:56.744Z,13.88
2022-10-08T15:41:23.806Z,10.38
2022-10-08T15:43:56.018Z,11.90
2022-10-08T15:46:29.811Z,16.05
2022-10-08T15:48:57.112Z,13.82
2022-10-08T15:51:27.304Z,17.40
2022-10-08T15:53:58.708Z,13.13
2022-10-08T15:56:27.227Z,13.52
2022-10-08T15:58:55.627Z,12.82
2022-10-08T16:01:24.229Z,10.77
2022-10-08T16:03:53.451Z,11.15
2022-10-08T16:06:27.442Z,13.73
2022-10-08T16:09:02.013Z,15.27
2022-10-08T16:11:34.994Z,16.10
2022-10-08T16:14:08.422Z,15.10
2022-10-08T16:16:37.783Z,11.30
2022-10-08T16:19:18.337Z,13.05
2022-10-08T16:21:50.717Z,16.50
2022-10-08T16:24:22.047Z,16.42
2022-10-08T16:26:51.867Z,16.35
2022-10-08T16:29:22.417Z,19.05
2022-10-08T16:31:50.788Z,18.73
2022-10-08T16:34:24.030Z,20.85
2022-10-08T16:36:55.312Z,21.70
2022-10-08T16:39:26.629Z,15.63
2022-10-08T16:41:54.374Z,15.10
2022-10-08T16:44:21.988Z,15.45
2022-10-08T16:46:51.401Z,21.27
2022-10-08T16:49:36.037Z,21.95
2022-10-08T16:52:05.914Z,18.42
2022-10-08T16:54:35.471Z,16.85
2022-10-08T16:57:05.568Z,18.25
2022-10-08T16:59:32.555Z,21.75
2022-10-08T17:01:59.686Z,33.42
2022-10-08T17:04:28.211Z,20.58
2022-10-08T17:07:01.194Z,19.08
2022-10-08T17:09:31.917Z,19.98
2022-10-08T17:12:02.680Z,20.60
2022-10-08T17:14:32.434Z,19.42
2022-10-08T17:16:59.942Z,18.13
2022-10-08T17:19:29.103Z,17.83
2022-10-08T17:21:56.883Z,18.85
2022-10-08T17:24:23.675Z,19.60
2022-10-08T17:26:52.209Z,32.17
2022-10-08T17:29:25.640Z,40.85
2022-10-08T17:31:53.391Z,23.83
2022-10-08T17:34:20.682Z,20.17
2022-10-08T17:36:50.885Z,21.70
2022-10-08T17:39:18.685Z,25.90
2022-10-08T17:41:45.458Z,39.53
2022-10-08T17:44:17.843Z,32.83
2022-10-08T17:46:49.529Z,24.95
2022-10-08T17:49:22.341Z,33.72
2022-10-08T17:51:53.973Z,31.10
2022-10-08T17:54:24.231Z,24.02
2022-10-08T17:56:53.694Z,22.30
2022-10-08T17:59:25.981Z,23.88
2022-10-08T18:01:53.962Z,21.13
2022-10-08T18:04:21.848Z,20.00
2022-10-08T18:06:51.997Z,20.00
2022-10-08T18:09:28.699Z,18.95
2022-10-08T18:12:00.613Z,18.13
2022-10-08T18:14:34.081Z,21.35
2022-10-08T18:17:10.116Z,20.42
2022-10-08T18:19:38.262Z,18.10
2022-10-08T18:22:07.417Z,20.80
2022-10-08T18:24:36.928Z,22.55
2022-10-08T18:27:06.814Z,18.08
2022-10-08T18:29:41.155Z,18.90
2022-10-08T18:32:11.778Z,20.98
2022-10-08T18:34:47.089Z,21.08
2022-10-08T18:37:22.973Z,23.80
2022-10-08T18:39:50.020Z,19.95
2022-10-08T18:42:22.471Z,25.08
2022-10-08T18:44:54.825Z,20.02
2022-10-08T18:47:28.501Z,20.38
2022-10-08T18:50:08.628Z,23.08
2022-10-08T18:52:46.340Z,25.70
2022-10-08T18:55:23.088Z,22.17
2022-10-08T18:57:56.126Z,23.25
2022-10-08T19:00:32.243Z,22.98
2022-10-08T19:03:02.094Z,19.33
2022-10-08T19:05:28.856Z,23.48
2022-10-08T19:07:56.541Z,21.17
2022-10-08T19:10:27.975Z,19.67
2022-10-08T19:12:55.955Z,21.90
2022-10-08T19:15:23.291Z,22.80
2022-10-08T19:17:50.071Z,23.67
2022-10-08T19:20:16.713Z,23.13
2022-10-08T19:22:43.596Z,24.45
2022-10-08T19:25:10.953Z,27.55
2022-10-08T19:27:49.173Z,21.23
2022-10-08T19:30:24.808Z,25.42
2022-10-08T19:32:56.695Z,24.45
2022-10-08T19:35:32.864Z,22.27
2022-10-08T19:38:04.239Z,23.35
2022-10-08T19:40:33.904Z,22.50
2022-10-08T19:43:06.430Z,23.80
2022-10-08T19:45:34.990Z,23.42
2022-10-08T19:48:02.408Z,22.77
2022-10-08T19:50:31.462Z,20.33
2022-10-08T19:52:59.364Z,22.37
2022-10-08T19:55:30.035Z,18.55
2022-10-08T19:58:03.684Z,19.95
2022-10-08T20:00:43.543Z,21.15
2022-10-08T20:03:16.079Z,20.60
2022-10-08T20:05:45.192Z,23.27
2022-10-08T20:08:17.275Z,21.65
2022-10-08T20:10:50.860Z,25.92
2022-10-08T20:13:24.654Z,23.08
2022-10-08T20:15:53.760Z,22.80
2022-10-08T20:18:26.184Z,25.08
2022-10-08T20:21:00.783Z,26.30
2022-10-08T20:23:27.894Z,25.67
2022-10-08T20:25:55.643Z,25.42
2022-10-08T20:28:26.968Z,22.98
2022-10-08T20:30:57.635Z,23.38
2022-10-08T20:33:31.317Z,25.83
2022-10-08T20:35:58.371Z,23.02
2022-10-08T20:38:33.314Z,30.75
2022-10-08T20:41:03.974Z,27.58
2022-10-08T20:43:38.552Z,22.73
2022-10-08T20:46:11.567Z,24.20
2022-10-08T20:48:40.676Z,23.17
2022-10-08T20:51:12.109Z,24.37
2022-10-08T20:53:39.087Z,22.17
2022-10-08T20:56:08.171Z,25.70
2022-10-08T20:58:36.102Z,22.02
2022-10-08T21:01:15.100Z,29.02
2022-10-08T21:03:43.961Z,27.23
2022-10-08T21:06:13.471Z,19.52
2022-10-08T21:08:42.141Z,21.90
2022-10-08T21:11:11.837Z,19.35
2022-10-08T21:13:38.768Z,22.63
2022-10-08T21:16:09.903Z,23.90
2022-10-08T21:18:37.470Z,21.88
2022-10-08T21:21:09.536Z,21.88
2022-10-08T21:23:36.753Z,22.85
2022-10-08T21:26:08.946Z,21.95
2022-10-08T21:28:36.398Z,26.75
2022-10-08T21:31:04.481Z,25.15
2022-10-08T21:33:35.213Z,21.58
2022-10-08T21:36:02.152Z,21.45
2022-10-08T21:38:28.922Z,19.02
2022-10-08T21:41:11.366Z,19.23
2022-10-08T21:43:47.254Z,21.38
2022-10-08T21:46:16.644Z,24.55
2022-10-08T21:48:43.746Z,27.27
2022-10-08T21:51:16.187Z,26.90
2022-10-08T21:53:49.719Z,29.65
2022-10-08T21:56:19.073Z,29.77
2022-10-08T21:58:48.689Z,32.38
2022-10-08T22:01:20.892Z,38.33
2022-10-08T22:03:47.630Z,30.50
2022-10-08T22:06:14.556Z,32.25
2022-10-08T22:08:41.227Z,29.60
2022-10-08T22:11:08.065Z,30.17
2022-10-08T22:13:34.787Z,24.95
2022-10-08T22:16:03.651Z,22.98
2022-10-08T22:18:32.593Z,26.90
2022-10-08T22:21:04.217Z,26.05
2022-10-08T22:23:31.073Z,26.10
2022-10-08T22:26:13.406Z,27.73
2022-10-08T22:28:41.087Z,29.48
2022-10-08T22:31:09.663Z,27.98
2022-10-08T22:33:37.072Z,29.80
2022-10-08T22:36:06.003Z,26.40
2022-10-08T22:38:34.647Z,29.02
2022-10-08T22:41:09.801Z,34.28
2022-10-08T22:43:40.730Z,31.38
2022-10-08T22:46:11.632Z,29.95
2022-10-08T22:48:39.044Z,32.03
2022-10-08T22:51:20.619Z,30.85
2022-10-08T22:53:48.402Z,26.95
2022-10-08T22:56:20.982Z,32.17
2022-10-08T22:58:49.549Z,32.83
2022-10-08T23:01:24.244Z,29.90
2022-10-08T23:03:51.662Z,29.38
2022-10-08T23:06:20.021Z,31.60
2022-10-08T23:08:49.038Z,29.80
2022-10-08T23:11:16.616Z,30.77
2022-10-08T23:13:46.127Z,27.63
2022-10-08T23:16:15.273Z,23.92
2022-10-08T23:18:44.601Z,26.90
2022-10-08T23:21:16.782Z,24.90
2022-10-08T23:23:45.370Z,26.27
2022-10-08T23:26:13.050Z,29.48
2022-10-08T23:28:40.895Z,34.75
2022-10-08T23:31:14.166Z,38.70
2022-10-08T23:33:44.380Z,28.85
2022-10-08T23:36:13.444Z,28.33
2022-10-08T23:38:40.329Z,28.23
2022-10-08T23:41:09.332Z,32.58
2022-10-08T23:43:38.352Z,33.13
2022-10-08T23:46:06.375Z,39.77
2022-10-08T23:48:33.787Z,35.45
2022-10-08T23:51:00.883Z,36.30
2022-10-08T23:53:28.084Z,33.53
2022-10-08T23:55:54.907Z,32.40
2022-10-08T23:58:21.594Z,31.20
